Terminal Aerodrome Forecast
Issued by NWS

Home | Current Version | Previous Version | Text Only | Print | Product List | Glossary Off
Versions: 1 2 3 4 5 6 7 8 9 10 11 12 13 14 15 16 17 18 19 20 21 22 23 24 25

000
FTUS43 KGRB 190528
TAFMTW
TAF
KMTW 190528Z 1906/2006 21006KT P6SM SKC
     FM190700 23005KT 5SM BR OVC008
     FM191200 22004KT 2SM BR OVC004
     FM191500 20005KT 5SM BR BKN007
     FM191900 19007KT 6SM BR SCT012
     FM200300 15003KT 3SM BR OVC012=

USA.gov is the U.S. government's official web portal to all federal, state and local government web resources and services.